Time;durP1;ratioP1;P1;durP2;ratioP2;P2;SDS_P1;SDS_P2;PMS_P1;PMS_P2;Temp;Humidity;BMP_temperature;BMP_pressure;BME280_temperature;BME280_humidity;BME280_pressure;Samples;Min_cycle;Max_cycle;Signal;HPM_P1;HPM_P2
2023/05/13 00:02:23;;;;;;;0.20;0.20;;;8.40;99.90;;;;;;4995507;28;20033;-72
2023/05/13 00:04:49;;;;;;;0.20;0.20;;;8.40;99.90;;;;;;4996818;28;20101;-71
2023/05/13 00:07:14;;;;;;;0.20;0.20;;;8.30;99.90;;;;;;4996864;28;20018;-71
2023/05/13 00:09:40;;;;;;;0.20;0.20;;;8.30;99.90;;;;;;4997018;28;20026;-71
2023/05/13 00:12:06;;;;;;;0.20;0.20;;;8.30;99.90;;;;;;4997051;28;20038;-71
2023/05/13 00:14:31;;;;;;;0.30;0.30;;;8.20;99.90;;;;;;4996218;28;20503;-71
2023/05/13 00:16:58;;;;;;;0.20;0.20;;;8.30;99.90;;;;;;4996557;28;20031;-71
2023/05/13 00:19:23;;;;;;;0.20;0.20;;;8.30;99.90;;;;;;4996740;28;20026;-71
2023/05/13 00:21:49;;;;;;;0.20;0.20;;;8.30;99.90;;;;;;4996585;28;20014;-71
2023/05/13 00:24:15;;;;;;;0.20;0.20;;;8.30;99.90;;;;;;4996981;28;20022;-71
2023/05/13 00:26:40;;;;;;;0.10;0.10;;;8.20;99.90;;;;;;4996488;28;20034;-71
2023/05/13 00:29:06;;;;;;;0.22;0.22;;;8.20;99.90;;;;;;4996019;28;20077;-72
2023/05/13 00:31:32;;;;;;;0.20;0.20;;;8.20;99.90;;;;;;4996441;28;20461;-71
2023/05/13 00:33:57;;;;;;;0.20;0.20;;;8.20;99.90;;;;;;4996422;28;20030;-71
2023/05/13 00:36:23;;;;;;;0.10;0.10;;;8.20;99.90;;;;;;4995740;28;20038;-72
2023/05/13 00:38:48;;;;;;;0.30;0.30;;;8.10;99.90;;;;;;4996356;28;20022;-71
2023/05/13 00:41:14;;;;;;;0.20;0.20;;;8.10;99.90;;;;;;4995968;28;20089;-71
2023/05/13 00:43:39;;;;;;;0.10;0.10;;;8.00;99.90;;;;;;4996492;28;20496;-71
2023/05/13 00:46:05;;;;;;;0.20;0.20;;;7.90;99.90;;;;;;4996075;28;20022;-71
2023/05/13 00:48:32;;;;;;;0.20;0.20;;;7.90;99.90;;;;;;4996265;28;20419;-71
2023/05/13 00:50:58;;;;;;;0.20;0.20;;;7.80;99.90;;;;;;4995588;28;20037;-72
2023/05/13 00:53:24;;;;;;;0.20;0.20;;;7.70;99.90;;;;;;4996010;28;20029;-71
2023/05/13 00:55:49;;;;;;;0.20;0.20;;;7.70;99.90;;;;;;4995834;28;20023;-71
2023/05/13 00:58:16;;;;;;;0.13;0.13;;;7.60;99.90;;;;;;4995904;28;20031;-71
2023/05/13 01:01:41;;;;;;;0.20;0.20;;;7.60;99.90;;;;;;4995862;28;20030;-71
2023/05/13 01:04:41;;;;;;;0.20;0.20;;;7.60;99.90;;;;;;4994022;28;20396;-71
2023/05/13 01:07:21;;;;;;;0.20;0.20;;;7.60;99.90;;;;;;4995944;28;20369;-71
2023/05/13 01:09:52;;;;;;;0.20;0.20;;;7.60;99.90;;;;;;4996007;28;20113;-71
2023/05/13 01:12:25;;;;;;;0.20;0.20;;;7.60;99.90;;;;;;4995172;28;20022;-72
2023/05/13 01:14:58;;;;;;;0.20;0.20;;;7.60;99.90;;;;;;4996021;28;20027;-71
2023/05/13 01:17:30;;;;;;;0.20;0.20;;;7.50;99.90;;;;;;4995702;28;20053;-71
2023/05/13 01:19:58;;;;;;;0.20;0.20;;;7.50;99.90;;;;;;4995539;28;20455;-71
2023/05/13 01:22:23;;;;;;;0.20;0.20;;;7.40;99.90;;;;;;4995464;28;20030;-71
2023/05/13 01:24:49;;;;;;;0.20;0.20;;;7.30;99.90;;;;;;4995397;28;20034;-71
2023/05/13 01:27:15;;;;;;;0.20;0.20;;;7.30;99.90;;;;;;4977444;28;20022;-72
2023/05/13 01:29:41;;;;;;;0.20;0.20;;;7.30;99.90;;;;;;4995427;28;20030;-71
2023/05/13 01:32:09;;;;;;;0.20;0.20;;;7.30;99.90;;;;;;4995444;28;20030;-71
2023/05/13 01:34:35;;;;;;;0.28;0.28;;;7.20;99.90;;;;;;4995246;28;20538;-71
2023/05/13 01:37:02;;;;;;;0.15;0.15;;;7.20;99.90;;;;;;4995154;28;20058;-72
2023/05/13 01:39:28;;;;;;;0.30;0.30;;;7.20;99.90;;;;;;4994630;28;20033;-72
2023/05/13 01:41:54;;;;;;;0.20;0.20;;;7.10;99.90;;;;;;4977635;28;20061;-71
2023/05/13 01:44:19;;;;;;;0.20;0.20;;;7.00;99.90;;;;;;4995381;28;20107;-71
2023/05/13 01:46:46;;;;;;;0.20;0.20;;;7.00;99.90;;;;;;4995010;28;20014;-71
2023/05/13 01:49:12;;;;;;;0.20;0.20;;;6.90;99.90;;;;;;4994449;28;20093;-72
2023/05/13 01:51:39;;;;;;;0.30;0.30;;;6.90;99.90;;;;;;4994278;28;20476;-71
2023/05/13 01:54:04;;;;;;;0.10;0.10;;;6.80;99.90;;;;;;4995098;28;20034;-71
2023/05/13 01:56:30;;;;;;;0.17;0.17;;;6.80;99.90;;;;;;4994800;28;20377;-71
2023/05/13 01:58:55;;;;;;;0.30;0.30;;;6.70;99.90;;;;;;4994686;28;20034;-71
2023/05/13 02:01:21;;;;;;;0.20;0.20;;;6.70;99.90;;;;;;4994737;28;20029;-71
2023/05/13 02:03:46;;;;;;;0.20;0.20;;;6.60;99.90;;;;;;4993423;28;20035;-71
2023/05/13 02:06:12;;;;;;;0.20;0.20;;;6.50;99.90;;;;;;4992700;28;20026;-71
2023/05/13 02:08:37;;;;;;;0.20;0.20;;;6.60;99.90;;;;;;4993357;28;20077;-72
2023/05/13 02:11:03;;;;;;;0.20;0.20;;;6.50;99.90;;;;;;4994582;28;20077;-71
2023/05/13 02:13:28;;;;;;;0.20;0.20;;;6.50;99.90;;;;;;4994511;28;20403;-71
2023/05/13 02:15:54;;;;;;;0.20;0.20;;;6.40;99.90;;;;;;5056590;23;20049;-73
2023/05/13 02:18:21;;;;;;;0.20;0.20;;;6.40;99.90;;;;;;5053594;28;20033;-74
2023/05/13 02:20:47;;;;;;;0.20;0.20;;;6.40;99.90;;;;;;5036174;28;20021;-74
2023/05/13 02:23:13;;;;;;;0.30;0.30;;;6.30;99.90;;;;;;5054212;28;20025;-74
2023/05/13 02:25:40;;;;;;;0.20;0.20;;;6.20;99.90;;;;;;5053505;28;20021;-73
2023/05/13 02:28:05;;;;;;;0.20;0.20;;;6.20;99.90;;;;;;5053944;28;20024;-73
2023/05/13 02:30:31;;;;;;;0.20;0.20;;;6.20;99.90;;;;;;5053981;28;20025;-73
2023/05/13 02:32:57;;;;;;;0.20;0.20;;;6.10;99.90;;;;;;5053760;28;20025;-74
2023/05/13 02:35:24;;;;;;;0.20;0.20;;;6.10;99.90;;;;;;5054294;28;20020;-74
2023/05/13 02:37:50;;;;;;;0.30;0.30;;;6.00;99.90;;;;;;5053144;28;20017;-73
2023/05/13 02:40:15;;;;;;;0.20;0.20;;;6.00;99.90;;;;;;5053815;28;20032;-74
2023/05/13 02:42:42;;;;;;;0.20;0.20;;;5.90;99.90;;;;;;5053713;28;20051;-73
2023/05/13 02:45:08;;;;;;;0.10;0.10;;;5.90;99.90;;;;;;5053595;28;20040;-73
2023/05/13 02:47:34;;;;;;;0.20;0.20;;;5.80;99.90;;;;;;5053397;28;20035;-73
2023/05/13 02:49:59;;;;;;;0.25;0.25;;;5.90;99.90;;;;;;5053037;28;20021;-73
2023/05/13 02:52:25;;;;;;;0.30;0.30;;;5.80;99.90;;;;;;5035566;28;20104;-74
2023/05/13 02:54:50;;;;;;;0.20;0.20;;;5.80;99.90;;;;;;5053339;28;20532;-75
2023/05/13 02:57:16;;;;;;;0.20;0.20;;;5.80;99.90;;;;;;5035471;28;20402;-75
2023/05/13 02:59:41;;;;;;;0.20;0.20;;;5.70;99.90;;;;;;5053137;28;20406;-75
2023/05/13 03:02:07;;;;;;;0.20;0.20;;;5.70;99.90;;;;;;5052887;28;20029;-75
2023/05/13 03:04:32;;;;;;;0.20;0.20;;;5.70;99.90;;;;;;5053319;28;20025;-75
2023/05/13 03:06:58;;;;;;;0.20;0.20;;;5.60;99.90;;;;;;5035347;28;20017;-75
2023/05/13 03:09:24;;;;;;;0.20;0.20;;;5.60;99.90;;;;;;5053454;28;20032;-75
2023/05/13 03:11:49;;;;;;;0.20;0.20;;;5.60;99.90;;;;;;5035497;28;20024;-74
2023/05/13 03:14:16;;;;;;;0.20;0.20;;;5.60;99.90;;;;;;5053379;28;20053;-75
2023/05/13 03:16:41;;;;;;;0.30;0.30;;;5.60;99.90;;;;;;5052891;28;20530;-75
2023/05/13 03:19:07;;;;;;;0.22;0.22;;;5.60;99.90;;;;;;5034375;28;20444;-75
2023/05/13 03:21:32;;;;;;;0.30;0.30;;;5.70;99.90;;;;;;5051915;28;20056;-74
2023/05/13 03:23:58;;;;;;;0.30;0.30;;;5.70;99.90;;;;;;5052143;28;20103;-74
2023/05/13 03:26:23;;;;;;;0.20;0.20;;;5.70;99.90;;;;;;5034313;28;20100;-74
2023/05/13 03:28:49;;;;;;;0.20;0.20;;;5.70;99.90;;;;;;5052156;28;20059;-74
2023/05/13 03:31:15;;;;;;;0.20;0.20;;;5.70;99.90;;;;;;5052215;28;20025;-75
2023/05/13 03:33:40;;;;;;;0.20;0.20;;;5.70;99.90;;;;;;5052081;28;20021;-75
2023/05/13 03:36:06;;;;;;;0.20;0.20;;;5.80;99.90;;;;;;5033853;28;20124;-72
2023/05/13 03:38:32;;;;;;;0.20;0.20;;;5.80;99.90;;;;;;5051765;28;20029;-75
2023/05/13 03:40:57;;;;;;;0.20;0.20;;;5.80;99.90;;;;;;5051982;28;20463;-75
2023/05/13 03:43:23;;;;;;;0.28;0.28;;;5.80;99.90;;;;;;5051994;28;20025;-75
2023/05/13 03:45:50;;;;;;;0.20;0.20;;;5.90;99.90;;;;;;5051817;28;20026;-75
2023/05/13 03:48:16;;;;;;;0.20;0.20;;;5.90;99.90;;;;;;5052054;28;20017;-75
2023/05/13 03:50:41;;;;;;;0.30;0.30;;;5.90;99.90;;;;;;5051264;28;20078;-75
2023/05/13 03:53:07;;;;;;;0.20;0.20;;;5.90;99.90;;;;;;5051856;28;20033;-74
2023/05/13 03:55:32;;;;;;;0.10;0.10;;;5.90;99.90;;;;;;5051665;28;20025;-74
2023/05/13 03:57:58;;;;;;;0.20;0.20;;;6.00;99.90;;;;;;5051084;28;20030;-74
2023/05/13 04:00:24;;;;;;;0.22;0.22;;;6.00;99.90;;;;;;5033752;28;20498;-74
2023/05/13 04:02:49;;;;;;;0.20;0.20;;;6.00;99.90;;;;;;5034042;28;20021;-75
2023/05/13 04:05:16;;;;;;;0.25;0.25;;;6.00;99.90;;;;;;5051937;28;20380;-74
2023/05/13 04:07:41;;;;;;;0.20;0.20;;;6.10;99.90;;;;;;5033813;28;20482;-74
2023/05/13 04:10:09;;;;;;;0.28;0.28;;;6.10;99.90;;;;;;5051667;28;20029;-74
2023/05/13 04:12:35;;;;;;;0.20;0.20;;;6.10;99.90;;;;;;5051093;28;20095;-74
2023/05/13 04:15:00;;;;;;;0.30;0.30;;;6.20;99.90;;;;;;5052160;28;20100;-75
2023/05/13 04:17:26;;;;;;;0.20;0.20;;;6.20;99.90;;;;;;5020193;28;1025925;-75
2023/05/13 04:19:52;;;;;;;0.13;0.13;;;6.30;99.90;;;;;;5056258;28;20029;-76
2023/05/13 04:22:18;;;;;;;0.22;0.22;;;6.30;99.90;;;;;;5055895;28;20029;-74
2023/05/13 04:24:44;;;;;;;0.20;0.20;;;6.40;99.90;;;;;;5055916;28;20545;-76
2023/05/13 04:27:10;;;;;;;0.25;0.25;;;6.50;99.90;;;;;;5055470;28;20072;-76
2023/05/13 04:29:35;;;;;;;0.20;0.20;;;6.60;99.90;;;;;;5038638;28;20076;-75
2023/05/13 04:32:01;;;;;;;0.30;0.30;;;6.70;99.90;;;;;;5036042;28;20500;-75
2023/05/13 04:34:26;;;;;;;0.13;0.13;;;6.80;99.90;;;;;;5037921;28;20029;-75
2023/05/13 04:36:52;;;;;;;0.10;0.10;;;6.90;99.90;;;;;;5034921;28;20471;-75
2023/05/13 04:39:17;;;;;;;0.20;0.20;;;7.10;99.90;;;;;;5035622;28;20061;-75
2023/05/13 04:41:43;;;;;;;0.20;0.20;;;7.20;99.90;;;;;;5036002;28;20029;-75
2023/05/13 04:44:08;;;;;;;0.20;0.20;;;7.20;99.90;;;;;;5036125;28;20030;-75
2023/05/13 04:46:36;;;;;;;0.25;0.25;;;7.30;99.90;;;;;;5034928;28;20029;-76
2023/05/13 04:49:02;;;;;;;0.20;0.20;;;7.40;99.90;;;;;;5036175;28;20057;-76
2023/05/13 04:51:28;;;;;;;0.13;0.13;;;7.40;99.90;;;;;;5039341;28;20064;-77
2023/05/13 04:53:53;;;;;;;0.20;0.20;;;7.50;99.90;;;;;;5043730;28;20020;-75
2023/05/13 04:56:19;;;;;;;0.20;0.20;;;7.60;99.90;;;;;;5038379;28;20034;-76
2023/05/13 04:58:45;;;;;;;0.30;0.30;;;7.90;99.90;;;;;;5045750;28;20033;-74
2023/05/13 05:01:10;;;;;;;0.20;0.20;;;8.00;99.90;;;;;;5047530;28;20032;-75
2023/05/13 05:03:36;;;;;;;0.25;0.25;;;8.00;99.90;;;;;;5044374;28;20036;-74
2023/05/13 05:06:01;;;;;;;0.20;0.20;;;8.20;99.90;;;;;;5046034;28;20071;-74
2023/05/13 05:08:27;;;;;;;0.13;0.13;;;8.30;99.90;;;;;;5049615;28;20029;-74
2023/05/13 05:10:53;;;;;;;0.20;0.20;;;8.50;99.90;;;;;;5043958;28;20430;-74
2023/05/13 05:13:18;;;;;;;0.13;0.13;;;8.70;99.90;;;;;;5054917;28;20029;-74
2023/05/13 05:15:44;;;;;;;0.20;0.20;;;8.90;99.90;;;;;;5046639;28;20426;-74
2023/05/13 05:18:09;;;;;;;0.20;0.20;;;9.10;99.90;;;;;;5049968;28;20616;-76
2023/05/13 05:20:36;;;;;;;0.20;0.20;;;9.20;99.90;;;;;;5054824;28;20028;-76
2023/05/13 05:23:02;;;;;;;0.20;0.20;;;9.40;99.90;;;;;;5052304;28;20017;-75
2023/05/13 05:25:28;;;;;;;0.10;0.10;;;9.60;99.90;;;;;;5049303;28;20021;-75
2023/05/13 05:27:54;;;;;;;0.17;0.17;;;9.70;99.90;;;;;;5053581;28;20025;-76
2023/05/13 05:30:19;;;;;;;0.20;0.20;;;9.90;99.90;;;;;;5051959;28;20100;-77
2023/05/13 05:32:45;;;;;;;0.20;0.20;;;10.10;99.90;;;;;;5053546;28;20025;-76
2023/05/13 05:35:11;;;;;;;0.20;0.20;;;10.20;99.90;;;;;;5054066;28;20021;-77
2023/05/13 05:37:36;;;;;;;0.17;0.17;;;10.40;99.90;;;;;;5053104;28;20465;-77
2023/05/13 05:40:02;;;;;;;0.20;0.20;;;10.50;99.90;;;;;;5036494;28;20036;-78
2023/05/13 05:42:28;;;;;;;0.20;0.20;;;10.60;99.90;;;;;;5052946;28;20028;-76
2023/05/13 05:44:53;;;;;;;0.30;0.30;;;10.80;99.90;;;;;;5054517;28;20537;-75
2023/05/13 05:47:19;;;;;;;0.20;0.20;;;10.90;99.90;;;;;;5031383;28;20048;-76
2023/05/13 05:49:45;;;;;;;0.10;0.10;;;11.10;99.90;;;;;;5050965;28;20040;-76
2023/05/13 05:52:12;;;;;;;0.20;0.20;;;11.30;99.90;;;;;;5052974;28;20048;-77
2023/05/13 05:54:37;;;;;;;0.20;0.20;;;11.40;99.90;;;;;;5054462;28;20102;-77
2023/05/13 05:57:03;;;;;;;0.20;0.20;;;11.60;99.90;;;;;;5053072;28;20057;-76
2023/05/13 05:59:29;;;;;;;0.22;0.22;;;11.80;99.90;;;;;;5053129;28;20037;-74
2023/05/13 06:01:54;;;;;;;0.20;0.20;;;12.00;99.90;;;;;;5052116;28;20023;-75
2023/05/13 06:04:19;;;;;;;0.20;0.20;;;12.20;99.90;;;;;;5053951;28;20022;-75
2023/05/13 06:06:45;;;;;;;0.17;0.17;;;12.40;99.90;;;;;;5051599;28;20092;-75
2023/05/13 06:09:11;;;;;;;0.30;0.30;;;12.50;99.90;;;;;;5053818;28;20494;-74
2023/05/13 06:11:36;;;;;;;0.20;0.20;;;12.70;99.90;;;;;;5053444;28;20024;-75
2023/05/13 06:14:02;;;;;;;0.10;0.10;;;12.90;99.90;;;;;;5052329;28;20095;-74
2023/05/13 06:16:27;;;;;;;0.10;0.10;;;13.10;99.90;;;;;;5053015;28;20031;-73
2023/05/13 06:18:53;;;;;;;0.10;0.10;;;13.20;99.90;;;;;;5053169;28;20068;-75
2023/05/13 06:21:18;;;;;;;0.20;0.20;;;13.30;99.90;;;;;;5051935;28;20041;-75
2023/05/13 06:23:44;;;;;;;0.20;0.20;;;13.50;99.90;;;;;;5053651;28;20033;-76
2023/05/13 06:26:09;;;;;;;0.20;0.20;;;13.60;99.90;;;;;;5052119;28;21271;-75
2023/05/13 06:28:35;;;;;;;0.10;0.10;;;13.80;99.90;;;;;;5053572;28;20029;-75
2023/05/13 06:31:00;;;;;;;0.20;0.20;;;13.90;99.90;;;;;;5052891;28;20493;-75
2023/05/13 06:33:26;;;;;;;0.20;0.20;;;14.00;99.90;;;;;;5053934;28;20047;-74
2023/05/13 06:35:52;;;;;;;0.20;0.20;;;14.20;99.90;;;;;;5041485;28;20017;-72
2023/05/13 06:38:17;;;;;;;0.20;0.20;;;14.40;99.90;;;;;;5048412;28;20470;-72
2023/05/13 06:40:44;;;;;;;0.20;0.20;;;14.50;99.90;;;;;;5033308;28;20029;-72
2023/05/13 06:43:15;;;;;;;0.20;0.20;;;14.60;99.90;;;;;;5043616;28;20075;-73
2023/05/13 06:45:41;;;;;;;0.20;0.20;;;14.80;99.90;;;;;;5033068;28;20024;-73
2023/05/13 06:48:06;;;;;;;0.20;0.20;;;15.00;99.90;;;;;;5031893;28;20564;-73
2023/05/13 06:50:32;;;;;;;0.20;0.20;;;15.10;99.90;;;;;;5033300;28;20033;-73
2023/05/13 06:52:57;;;;;;;0.20;0.20;;;15.20;99.90;;;;;;5032734;28;20079;-74
2023/05/13 06:55:23;;;;;;;0.13;0.13;;;15.30;99.90;;;;;;5033138;28;20079;-73
2023/05/13 06:57:48;;;;;;;0.20;0.20;;;15.50;99.90;;;;;;5052271;28;20075;-73
2023/05/13 07:00:15;;;;;;;0.20;0.20;;;15.70;99.90;;;;;;5052668;28;20029;-75
2023/05/13 07:02:41;;;;;;;0.20;0.20;;;15.90;99.90;;;;;;5035068;28;20088;-74
2023/05/13 07:05:07;;;;;;;0.20;0.20;;;16.00;99.90;;;;;;5052338;28;20112;-74
2023/05/13 07:07:33;;;;;;;0.10;0.10;;;16.20;99.90;;;;;;5052884;28;20095;-74
2023/05/13 07:09:59;;;;;;;0.20;0.20;;;16.30;99.90;;;;;;5053088;28;20116;-74
2023/05/13 07:12:24;;;;;;;0.20;0.20;;;16.40;99.90;;;;;;5035055;28;20039;-75
2023/05/13 07:14:50;;;;;;;0.10;0.10;;;16.60;99.90;;;;;;5052500;28;20029;-75
2023/05/13 07:17:16;;;;;;;0.20;0.20;;;16.70;99.90;;;;;;5052339;28;20043;-74
2023/05/13 07:19:41;;;;;;;0.20;0.20;;;16.80;99.90;;;;;;5052193;28;20029;-74
2023/05/13 07:22:07;;;;;;;0.10;0.10;;;16.90;99.90;;;;;;5052658;28;20394;-74
2023/05/13 07:24:33;;;;;;;0.20;0.20;;;17.10;99.90;;;;;;5034685;28;20028;-73
2023/05/13 07:26:58;;;;;;;0.10;0.10;;;17.30;99.90;;;;;;5051887;28;20032;-73
2023/05/13 07:29:24;;;;;;;0.10;0.10;;;17.50;99.90;;;;;;5051822;28;20029;-73
2023/05/13 07:31:50;;;;;;;0.15;0.15;;;17.60;99.90;;;;;;5052673;28;20593;-73
2023/05/13 07:34:15;;;;;;;0.20;0.20;;;17.70;99.90;;;;;;5052049;28;20167;-73
2023/05/13 07:36:41;;;;;;;0.20;0.20;;;17.80;99.90;;;;;;5052129;28;20029;-73
2023/05/13 07:39:07;;;;;;;0.10;0.10;;;18.00;99.90;;;;;;5052453;28;20044;-73
2023/05/13 07:41:34;;;;;;;0.20;0.20;;;18.10;99.90;;;;;;5052236;28;20017;-73
2023/05/13 07:43:59;;;;;;;0.10;0.10;;;18.10;99.90;;;;;;5052136;28;20088;-73
2023/05/13 07:46:25;;;;;;;0.20;0.20;;;18.30;99.90;;;;;;5051799;28;20155;-73
2023/05/13 07:48:50;;;;;;;0.10;0.10;;;18.40;99.90;;;;;;5052124;28;20023;-74
2023/05/13 07:51:17;;;;;;;0.10;0.10;;;18.60;99.90;;;;;;5036197;28;20449;-73
2023/05/13 07:53:44;;;;;;;0.10;0.10;;;18.80;99.90;;;;;;5039400;28;20025;-73
2023/05/13 07:56:10;;;;;;;0.10;0.10;;;19.00;99.90;;;;;;5035665;28;20133;-73
2023/05/13 07:58:36;;;;;;;0.10;0.10;;;19.20;99.90;;;;;;5036035;28;20108;-73
2023/05/13 08:01:02;;;;;;;0.10;0.10;;;19.30;99.90;;;;;;5046647;28;20028;-73
2023/05/13 08:03:28;;;;;;;0.10;0.10;;;19.40;99.90;;;;;;5055956;28;20017;-73
2023/05/13 08:05:54;;;;;;;0.17;0.17;;;19.40;99.90;;;;;;5055883;28;20047;-73
2023/05/13 08:08:19;;;;;;;0.10;0.10;;;19.40;99.90;;;;;;5055410;28;20463;-73
2023/05/13 08:10:45;;;;;;;0.10;0.10;;;19.50;99.90;;;;;;5055612;28;20033;-73
2023/05/13 08:13:10;;;;;;;0.17;0.17;;;19.80;99.90;;;;;;5056034;28;20029;-77
2023/05/13 08:15:37;;;;;;;0.10;0.10;;;19.80;99.90;;;;;;5040428;28;20116;-78
2023/05/13 08:18:02;;;;;;;0.05;0.05;;;20.10;99.90;;;;;;5030430;23;20048;-78
2023/05/13 08:20:28;;;;;;;0.10;0.10;;;20.20;99.90;;;;;;5017351;28;20396;-78
2023/05/13 08:22:55;;;;;;;0.10;0.10;;;20.20;99.90;;;;;;5017384;28;20040;-78
2023/05/13 08:25:21;;;;;;;0.10;0.10;;;20.30;99.90;;;;;;4999646;28;20440;-78
2023/05/13 08:27:47;;;;;;;0.10;0.10;;;20.20;99.90;;;;;;5032144;28;20078;-77
2023/05/13 08:30:13;;;;;;;0.10;0.10;;;20.50;99.90;;;;;;5037200;28;20418;-78
2023/05/13 08:32:38;;;;;;;0.10;0.10;;;20.50;99.90;;;;;;5019903;28;20037;-78
2023/05/13 08:35:04;;;;;;;0.10;0.10;;;20.70;99.90;;;;;;5039333;28;20030;-78
2023/05/13 08:37:30;;;;;;;0.10;0.10;;;20.80;99.90;;;;;;5038461;28;20056;-77
2023/05/13 08:39:58;;;;;;;0.10;0.10;;;21.00;99.90;;;;;;5020664;28;20483;-77
2023/05/13 08:42:27;;;;;;;0.10;0.10;;;21.10;99.90;;;;;;5039452;28;20022;-79
2023/05/13 08:44:53;;;;;;;0.10;0.10;;;21.40;99.90;;;;;;5035619;28;20028;-74
2023/05/13 08:47:29;;;;;;;0.00;0.00;;;21.20;99.90;;;;;;5035046;28;20104;-75
2023/05/13 08:49:55;;;;;;;0.10;0.10;;;21.20;99.90;;;;;;5017292;28;20380;-76
2023/05/13 08:52:22;;;;;;;0.05;0.05;;;21.40;99.90;;;;;;5035314;28;20032;-74
2023/05/13 08:54:48;;;;;;;0.10;0.10;;;21.60;99.90;;;;;;5035103;28;20030;-73
2023/05/13 08:57:14;;;;;;;0.10;0.10;;;21.70;99.90;;;;;;5034871;28;20078;-74
2023/05/13 08:59:39;;;;;;;0.10;0.10;;;22.00;99.90;;;;;;5035004;28;20108;-74
2023/05/13 09:02:05;;;;;;;0.00;0.00;;;21.90;99.90;;;;;;5034609;28;20096;-74
2023/05/13 09:04:36;;;;;;;0.00;0.00;;;21.90;99.90;;;;;;5034954;28;20029;-75
2023/05/13 09:07:03;;;;;;;0.10;0.10;;;22.00;99.90;;;;;;5034869;28;20067;-74
2023/05/13 09:09:28;;;;;;;0.10;0.10;;;22.10;99.90;;;;;;5035000;28;20086;-74
2023/05/13 09:11:54;;;;;;;0.00;0.00;;;22.20;99.90;;;;;;5034605;28;20025;-75
2023/05/13 09:14:19;;;;;;;0.05;0.05;;;22.10;99.90;;;;;;5016697;28;20029;-74
2023/05/13 09:16:46;;;;;;;0.10;0.10;;;22.10;99.90;;;;;;5034721;28;20041;-74
2023/05/13 09:19:12;;;;;;;0.10;0.10;;;22.20;99.90;;;;;;5034853;28;20061;-74
2023/05/13 09:21:38;;;;;;;0.10;0.10;;;22.40;99.90;;;;;;5034727;28;20057;-75
2023/05/13 09:24:17;;;;;;;0.10;0.10;;;22.60;99.90;;;;;;5034785;28;20075;-75
2023/05/13 09:26:44;;;;;;;0.00;0.00;;;22.60;99.90;;;;;;5033987;28;20013;-75
2023/05/13 09:29:21;;;;;;;0.00;0.00;;;22.50;99.90;;;;;;5034377;28;20529;-75
2023/05/13 09:31:52;;;;;;;0.00;0.00;;;22.50;99.90;;;;;;5034596;28;20056;-75
2023/05/13 09:34:30;;;;;;;0.10;0.10;;;22.40;99.90;;;;;;5034584;28;20036;-75
2023/05/13 09:37:03;;;;;;;0.00;0.00;;;22.60;99.90;;;;;;5033763;28;20120;-75
2023/05/13 09:39:31;;;;;;;0.10;0.10;;;22.80;99.90;;;;;;5034495;28;20475;-75
2023/05/13 09:41:56;;;;;;;0.08;0.08;;;23.00;99.90;;;;;;5034120;28;20052;-75
2023/05/13 09:44:22;;;;;;;0.00;0.00;;;23.10;99.90;;;;;;5030832;28;20034;-75
2023/05/13 09:46:51;;;;;;;0.00;0.00;;;23.50;99.90;;;;;;5027342;28;20093;-75
2023/05/13 09:49:16;;;;;;;0.00;0.00;;;23.90;99.90;;;;;;5012586;28;20026;-75
2023/05/13 09:51:44;;;;;;;0.03;0.03;;;24.00;99.90;;;;;;5012939;28;20026;-75
2023/05/13 09:54:10;;;;;;;0.00;0.00;;;24.10;99.90;;;;;;5025620;28;20040;-75
2023/05/13 09:56:36;;;;;;;0.10;0.10;;;24.30;99.90;;;;;;5032392;28;20056;-75
2023/05/13 09:59:02;;;;;;;0.10;0.10;;;24.30;99.90;;;;;;5033578;28;20029;-76
2023/05/13 10:01:28;;;;;;;0.10;0.10;;;24.20;99.90;;;;;;5032576;28;20441;-75
2023/05/13 10:03:55;;;;;;;0.00;0.00;;;24.40;99.90;;;;;;5032437;28;20024;-76
2023/05/13 10:06:23;;;;;;;0.00;0.00;;;24.50;99.90;;;;;;5032072;28;20037;-75
2023/05/13 10:08:50;;;;;;;0.00;0.00;;;24.60;99.90;;;;;;5032981;28;20041;-75
2023/05/13 10:11:17;;;;;;;0.00;0.00;;;25.10;99.90;;;;;;5032210;28;20022;-75
2023/05/13 10:13:49;;;;;;;0.00;0.00;;;24.90;99.90;;;;;;5032143;28;20490;-76
2023/05/13 10:16:17;;;;;;;0.00;0.00;;;25.00;99.90;;;;;;5032178;28;20103;-76
2023/05/13 10:18:42;;;;;;;0.00;0.00;;;25.30;99.90;;;;;;5032683;28;20022;-76
2023/05/13 10:21:08;;;;;;;0.00;0.00;;;25.40;99.90;;;;;;5032082;28;20421;-76
2023/05/13 10:23:34;;;;;;;0.00;0.00;;;25.60;99.90;;;;;;5014451;28;20734;-75
2023/05/13 10:26:00;;;;;;;0.00;0.00;;;25.20;99.90;;;;;;5014043;28;20033;-76
2023/05/13 10:28:26;;;;;;;0.00;0.00;;;25.20;99.90;;;;;;5033232;28;20025;-77
2023/05/13 10:30:52;;;;;;;0.00;0.00;;;25.20;99.90;;;;;;5016831;28;20025;-77
2023/05/13 10:33:18;;;;;;;0.05;0.05;;;25.00;99.90;;;;;;5034097;28;20083;-78
2023/05/13 10:36:20;;;;;;;0.00;0.00;;;25.00;99.90;;;;;;5035173;28;20067;-77
2023/05/13 10:39:09;;;;;;;0.00;0.00;;;25.00;99.90;;;;;;5014689;28;20384;-77
2023/05/13 10:41:59;;;;;;;0.00;0.00;;;25.10;99.90;;;;;;5033639;28;20131;-78
2023/05/13 10:44:26;;;;;;;0.00;0.00;;;25.40;99.90;;;;;;5033230;28;20017;-79
2023/05/13 10:46:54;;;;;;;0.00;0.00;;;25.50;99.90;;;;;;5015971;28;20474;-76
2023/05/13 10:49:23;;;;;;;0.00;0.00;;;25.80;99.90;;;;;;5032738;28;20033;-77
2023/05/13 10:51:49;;;;;;;0.00;0.00;;;26.00;99.90;;;;;;5032322;28;20430;-77
2023/05/13 10:54:23;;;;;;;0.00;0.00;;;26.30;99.90;;;;;;5031798;28;20121;-77
2023/05/13 10:57:00;;;;;;;0.00;0.00;;;26.30;99.90;;;;;;5013911;28;20029;-77
2023/05/13 10:59:29;;;;;;;0.00;0.00;;;26.10;99.90;;;;;;5032277;28;20075;-77
2023/05/13 11:01:54;;;;;;;0.00;0.00;;;26.40;99.90;;;;;;5032228;28;20022;-77
2023/05/13 11:04:21;;;;;;;0.00;0.00;;;26.50;99.90;;;;;;5031686;28;20117;-77
2023/05/13 11:06:49;;;;;;;0.00;0.00;;;26.50;99.90;;;;;;5014057;28;20025;-77
2023/05/13 11:09:35;;;;;;;0.00;0.00;;;26.40;99.90;;;;;;5031814;28;20021;-76
2023/05/13 11:12:02;;;;;;;0.00;0.00;;;26.30;99.90;;;;;;5031395;28;20415;-77
2023/05/13 11:14:30;;;;;;;0.00;0.00;;;26.30;99.90;;;;;;5031784;28;20467;-74
2023/05/13 11:17:03;;;;;;;0.00;0.00;;;26.50;99.90;;;;;;5012992;28;20486;-77
2023/05/13 11:19:30;;;;;;;0.00;0.00;;;26.30;99.90;;;;;;5031472;28;20026;-77
2023/05/13 11:22:20;;;;;;;0.00;0.00;;;26.40;99.90;;;;;;5031385;28;20083;-78
2023/05/13 11:25:07;;;;;;;0.00;0.00;;;26.50;99.90;;;;;;5014468;28;20022;-77
2023/05/13 11:27:37;;;;;;;0.00;0.00;;;26.70;99.90;;;;;;5035010;28;20029;-77
2023/05/13 11:30:06;;;;;;;0.00;0.00;;;27.00;99.90;;;;;;5035584;28;20116;-77
2023/05/13 11:32:50;;;;;;;0.00;0.00;;;26.90;99.90;;;;;;5035554;28;20025;-78
2023/05/13 11:35:30;;;;;;;0.00;0.00;;;27.20;99.90;;;;;;5035315;28;20049;-77
2023/05/13 11:37:57;;;;;;;0.00;0.00;;;27.30;99.90;;;;;;5034543;28;20029;-77
2023/05/13 11:40:33;;;;;;;0.00;0.00;;;27.40;99.90;;;;;;5034793;28;20052;-77
2023/05/13 11:43:00;;;;;;;0.00;0.00;;;27.60;99.90;;;;;;5034879;28;20036;-77
2023/05/13 11:45:27;;;;;;;0.00;0.00;;;27.80;99.90;;;;;;5017710;28;20029;-78
2023/05/13 11:47:53;;;;;;;0.00;0.00;;;27.90;99.90;;;;;;5017050;28;20026;-77
2023/05/13 11:50:20;;;;;;;0.00;0.00;;;28.00;98.20;;;;;;5017362;28;20041;-77
2023/05/13 11:52:51;;;;;;;0.00;0.00;;;28.10;99.70;;;;;;5034534;28;20030;-76
2023/05/13 11:55:34;;;;;;;0.00;0.00;;;28.30;98.90;;;;;;5034612;28;20044;-77
2023/05/13 11:58:00;;;;;;;;;;;28.80;95.70;;;;;;5035149;28;20113;-77
2023/05/13 12:00:26;;;;;;;0.00;0.00;;;29.00;96.40;;;;;;5034806;28;20277;-77
2023/05/13 12:02:52;;;;;;;0.00;0.00;;;28.80;94.40;;;;;;5033999;28;20076;-78
2023/05/13 12:05:18;;;;;;;0.00;0.00;;;29.10;95.00;;;;;;5017253;28;20166;-76
2023/05/13 12:07:43;;;;;;;0.00;0.00;;;29.30;90.70;;;;;;5017091;28;20021;-77
2023/05/13 12:10:09;;;;;;;0.00;0.00;;;29.30;93.60;;;;;;5034944;28;20025;-77
2023/05/13 12:12:41;;;;;;;0.00;0.00;;;29.40;90.70;;;;;;5035018;28;20029;-76
2023/05/13 12:15:12;;;;;;;0.00;0.00;;;29.80;92.60;;;;;;5016318;28;20113;-77
2023/05/13 12:17:38;;;;;;;0.00;0.00;;;29.70;82.90;;;;;;5034494;28;20026;-77
2023/05/13 12:20:07;;;;;;;0.00;0.00;;;29.70;87.30;;;;;;5034466;28;20030;-77
2023/05/13 12:22:34;;;;;;;0.00;0.00;;;29.60;83.60;;;;;;5017276;28;20029;-77
2023/05/13 12:25:20;;;;;;;0.00;0.00;;;29.70;84.30;;;;;;5032625;28;20491;-77
2023/05/13 12:27:51;;;;;;;0.00;0.00;;;30.00;87.10;;;;;;5015834;28;20407;-77
2023/05/13 12:30:17;;;;;;;0.00;0.00;;;30.00;84.40;;;;;;5033725;28;20556;-76
2023/05/13 12:32:43;;;;;;;0.00;0.00;;;30.20;85.00;;;;;;5033898;28;20026;-76
2023/05/13 12:35:13;;;;;;;0.00;0.00;;;30.40;84.10;;;;;;5015420;28;20510;-76
2023/05/13 12:37:39;;;;;;;0.00;0.00;;;30.50;83.20;;;;;;5033799;28;20468;-76
2023/05/13 12:40:11;;;;;;;0.00;0.00;;;30.70;81.40;;;;;;5034406;28;20033;-76
2023/05/13 12:42:36;;;;;;;0.00;0.00;;;30.60;76.10;;;;;;5016602;28;20387;-78
2023/05/13 12:45:02;;;;;;;0.00;0.00;;;30.50;75.20;;;;;;5034326;28;20029;-77
2023/05/13 12:47:28;;;;;;;0.00;0.00;;;30.40;77.30;;;;;;5034609;28;20092;-77
2023/05/13 12:49:57;;;;;;;0.00;0.00;;;30.70;77.40;;;;;;5034368;28;20560;-76
2023/05/13 12:52:22;;;;;;;0.00;0.00;;;31.10;74.40;;;;;;5034069;28;20072;-76